createdAt,value
2019-01-15T00:00:24.076Z,3.07
2019-01-15T00:02:52.555Z,3.00
2019-01-15T00:05:21.030Z,3.50
2019-01-15T00:07:49.591Z,3.20
2019-01-15T00:10:18.051Z,3.27
2019-01-15T00:12:46.536Z,3.03
2019-01-15T00:15:15.058Z,3.63
2019-01-15T00:17:43.539Z,2.73
2019-01-15T00:20:14.348Z,3.73
2019-01-15T00:22:42.811Z,3.23
2019-01-15T00:25:11.465Z,3.30
2019-01-15T00:27:39.923Z,3.40
2019-01-15T00:30:16.852Z,3.00
2019-01-15T00:32:45.306Z,2.97
2019-01-15T00:35:13.871Z,2.97
2019-01-15T00:37:42.327Z,3.13
2019-01-15T00:40:14.057Z,3.43
2019-01-15T00:42:42.511Z,3.43
2019-01-15T00:45:11.734Z,4.07
2019-01-15T00:47:40.454Z,3.57
2019-01-15T00:50:11.780Z,3.87
2019-01-15T00:52:40.236Z,3.73
2019-01-15T00:55:10.676Z,3.53
2019-01-15T00:57:39.293Z,3.40
2019-01-15T01:00:16.295Z,3.43
2019-01-15T01:02:44.775Z,3.90
2019-01-15T01:05:14.193Z,4.17
2019-01-15T01:07:42.890Z,3.57
2019-01-15T01:10:12.794Z,3.00
2019-01-15T01:12:41.250Z,3.23
2019-01-15T01:15:12.566Z,3.50
2019-01-15T01:17:41.023Z,3.57
2019-01-15T01:20:12.149Z,3.77
2019-01-15T01:22:40.667Z,3.80
2019-01-15T01:25:11.787Z,3.80
2019-01-15T01:27:40.244Z,4.17
2019-01-15T01:30:19.682Z,3.33
2019-01-15T01:32:48.203Z,3.93
2019-01-15T01:35:16.733Z,4.50
2019-01-15T01:37:45.199Z,3.80
2019-01-15T01:40:16.014Z,3.50
2019-01-15T01:42:44.463Z,3.20
2019-01-15T01:45:15.196Z,3.87
2019-01-15T01:47:43.642Z,4.37
2019-01-15T01:50:13.964Z,4.67
2019-01-15T01:52:42.864Z,3.40
2019-01-15T01:55:13.286Z,4.03
2019-01-15T01:57:41.818Z,3.00
2019-01-15T02:00:16.026Z,3.43
2019-01-15T02:02:44.496Z,3.30
2019-01-15T02:05:13.323Z,3.93
2019-01-15T02:07:41.856Z,3.63
2019-01-15T02:10:13.077Z,3.97
2019-01-15T02:12:41.534Z,3.70
2019-01-15T02:15:13.052Z,3.33
2019-01-15T02:17:41.504Z,3.97
2019-01-15T02:20:12.568Z,2.93
2019-01-15T02:22:41.018Z,3.97
2019-01-15T02:25:10.533Z,3.93
2019-01-15T02:27:40.637Z,3.40
2019-01-15T02:30:17.298Z,3.53
2019-01-15T02:32:45.733Z,3.77
2019-01-15T02:35:14.352Z,3.50
2019-01-15T02:37:43.067Z,3.30
2019-01-15T02:40:13.697Z,3.70
2019-01-15T02:42:46.744Z,3.80
2019-01-15T02:45:15.100Z,4.00
2019-01-15T02:47:43.556Z,3.97
2019-01-15T02:50:14.668Z,4.23
2019-01-15T02:52:43.122Z,3.20
2019-01-15T02:55:12.240Z,3.97
2019-01-15T02:57:40.697Z,3.70
2019-01-15T03:00:17.952Z,4.00
2019-01-15T03:02:46.522Z,3.57
2019-01-15T03:05:15.435Z,3.20
2019-01-15T03:07:43.928Z,3.73
2019-01-15T03:10:15.321Z,4.10
2019-01-15T03:12:45.408Z,3.17
2019-01-15T03:15:14.159Z,3.67
2019-01-15T03:17:42.715Z,3.77
2019-01-15T03:20:13.710Z,4.27
2019-01-15T03:22:42.175Z,3.73
2019-01-15T03:25:11.585Z,3.93
2019-01-15T03:27:40.041Z,4.03
2019-01-15T03:30:11.952Z,3.83
2019-01-15T03:32:40.407Z,3.50
2019-01-15T03:35:09.012Z,4.10
2019-01-15T03:37:37.486Z,4.03
2019-01-15T03:40:09.009Z,4.17
2019-01-15T03:42:37.494Z,3.73
2019-01-15T03:45:07.292Z,4.10
2019-01-15T03:47:35.786Z,4.10
2019-01-15T03:50:05.775Z,4.17
2019-01-15T03:52:34.251Z,4.07
2019-01-15T03:55:02.912Z,3.23
2019-01-15T03:57:31.385Z,4.00
2019-01-15T03:59:59.845Z,3.93
2019-01-15T04:02:28.490Z,3.97
2019-01-15T04:04:57.223Z,4.60
2019-01-15T04:07:25.712Z,3.77
2019-01-15T04:09:54.247Z,4.27
2019-01-15T04:12:22.728Z,4.33
2019-01-15T04:14:51.180Z,3.87
2019-01-15T04:17:19.657Z,3.77
2019-01-15T04:19:48.114Z,3.43
2019-01-15T04:22:16.594Z,3.97
2019-01-15T04:24:45.046Z,3.43
2019-01-15T04:27:13.532Z,3.70
2019-01-15T04:29:41.994Z,4.70
2019-01-15T04:32:10.478Z,4.07
2019-01-15T04:34:38.921Z,3.00
2019-01-15T04:37:07.398Z,4.20
2019-01-15T04:39:35.869Z,3.93
2019-01-15T04:42:04.491Z,3.73
2019-01-15T04:44:32.959Z,4.13
2019-01-15T04:47:01.439Z,4.03
2019-01-15T04:49:29.904Z,4.57
2019-01-15T04:51:58.389Z,4.27
2019-01-15T04:54:26.908Z,5.23
2019-01-15T04:56:55.862Z,4.20
2019-01-15T04:59:24.595Z,4.07
2019-01-15T05:01:53.075Z,4.47
2019-01-15T05:04:21.530Z,3.90
2019-01-15T05:06:50.013Z,4.67
2019-01-15T05:09:18.515Z,4.00
2019-01-15T05:11:46.995Z,4.30
2019-01-15T05:14:15.456Z,3.60
2019-01-15T05:16:43.939Z,3.70
2019-01-15T05:19:12.405Z,4.00
2019-01-15T05:21:40.861Z,3.70
2019-01-15T05:24:09.337Z,3.97
2019-01-15T05:26:37.842Z,3.43
2019-01-15T05:29:06.298Z,3.93
2019-01-15T05:31:34.748Z,3.93
2019-01-15T05:34:03.237Z,3.33
2019-01-15T05:36:31.698Z,3.53
2019-01-15T05:39:00.179Z,3.33
2019-01-15T05:41:28.631Z,3.30
2019-01-15T05:43:57.109Z,3.30
2019-01-15T05:46:25.562Z,4.23
2019-01-15T05:48:54.052Z,2.83
2019-01-15T05:51:24.158Z,3.93
2019-01-15T05:53:52.647Z,2.70
2019-01-15T05:56:21.134Z,3.33
2019-01-15T05:58:49.611Z,3.27
2019-01-15T06:01:18.071Z,3.53
2019-01-15T06:03:46.549Z,3.00
2019-01-15T06:06:15.028Z,3.70
2019-01-15T06:08:43.508Z,3.13
2019-01-15T06:11:11.958Z,3.07
2019-01-15T06:13:42.780Z,3.17
2019-01-15T06:16:10.618Z,3.70
2019-01-15T06:18:39.110Z,3.20
2019-01-15T06:21:07.592Z,2.93
2019-01-15T06:23:36.168Z,2.87
2019-01-15T06:26:04.695Z,3.40
2019-01-15T06:28:33.175Z,3.07
2019-01-15T06:31:01.637Z,3.10
2019-01-15T06:33:30.119Z,3.47
2019-01-15T06:35:58.583Z,3.20
2019-01-15T06:38:27.084Z,3.70
2019-01-15T06:40:55.614Z,3.03
2019-01-15T06:43:24.093Z,3.17
2019-01-15T06:45:52.542Z,3.07
2019-01-15T06:48:21.020Z,2.97
2019-01-15T06:50:49.495Z,2.33
2019-01-15T06:53:18.056Z,2.67
2019-01-15T06:55:46.505Z,2.73
2019-01-15T06:58:14.984Z,2.27
2019-01-15T07:00:43.449Z,3.03
2019-01-15T07:03:12.016Z,2.93
2019-01-15T07:05:40.481Z,3.17
2019-01-15T07:08:08.963Z,2.90
2019-01-15T07:10:38.853Z,3.57
2019-01-15T07:13:07.487Z,3.00
2019-01-15T07:15:35.954Z,3.23
2019-01-15T07:18:04.654Z,2.80
2019-01-15T07:20:33.120Z,3.33
2019-01-15T07:23:01.568Z,2.30
2019-01-15T07:25:30.802Z,2.43
2019-01-15T07:27:59.257Z,3.30
2019-01-15T07:30:36.644Z,3.37
2019-01-15T07:33:06.237Z,2.43
2019-01-15T07:35:34.710Z,2.17
2019-01-15T07:38:03.240Z,2.50
2019-01-15T07:40:31.718Z,3.03
2019-01-15T07:43:00.177Z,2.77
2019-01-15T07:45:28.657Z,2.93
2019-01-15T07:47:57.110Z,2.87
2019-01-15T07:50:25.591Z,2.57
2019-01-15T07:52:54.051Z,2.20
2019-01-15T07:55:23.171Z,2.50
2019-01-15T07:57:51.622Z,2.20
2019-01-15T08:00:24.603Z,1.63
2019-01-15T08:02:54.767Z,2.17
2019-01-15T08:05:28.261Z,2.50
2019-01-15T08:07:56.951Z,2.70
2019-01-15T08:10:25.428Z,2.57
2019-01-15T08:12:54.074Z,2.10
2019-01-15T08:15:24.883Z,2.27
2019-01-15T08:17:53.332Z,2.30
2019-01-15T08:20:21.972Z,2.83
2019-01-15T08:22:50.501Z,2.10
2019-01-15T08:25:19.213Z,2.80
2019-01-15T08:27:47.672Z,2.60
2019-01-15T08:30:27.950Z,2.20
2019-01-15T08:32:56.411Z,2.43
2019-01-15T08:35:25.334Z,2.07
2019-01-15T08:37:53.797Z,2.30
2019-01-15T08:40:22.267Z,2.30
2019-01-15T08:42:50.718Z,2.20
2019-01-15T08:45:19.446Z,2.03
2019-01-15T08:47:52.416Z,2.23
2019-01-15T08:50:23.831Z,1.97
2019-01-15T08:52:52.362Z,2.50
2019-01-15T08:55:21.002Z,2.03
2019-01-15T08:57:49.521Z,2.00
2019-01-15T09:00:18.164Z,2.17
2019-01-15T09:02:46.622Z,2.27
2019-01-15T09:05:15.274Z,2.40
2019-01-15T09:07:43.733Z,2.43
2019-01-15T09:10:14.658Z,2.70
2019-01-15T09:12:43.375Z,2.87
2019-01-15T09:15:14.291Z,3.33
2019-01-15T09:17:42.823Z,2.23
2019-01-15T09:20:14.350Z,2.93
2019-01-15T09:22:42.856Z,3.43
2019-01-15T09:25:11.776Z,3.20
2019-01-15T09:27:40.367Z,3.00
2019-01-15T09:30:12.174Z,2.83
2019-01-15T09:32:40.611Z,2.40
2019-01-15T09:35:09.165Z,2.10
2019-01-15T09:37:38.371Z,2.67
2019-01-15T09:40:12.944Z,2.73
2019-01-15T09:42:41.400Z,2.77
2019-01-15T09:45:15.549Z,2.17
2019-01-15T09:47:45.908Z,2.80
2019-01-15T09:50:14.360Z,2.43
2019-01-15T09:52:42.837Z,2.20
2019-01-15T09:55:11.422Z,2.77
2019-01-15T09:57:39.904Z,2.70
2019-01-15T10:00:14.222Z,2.43
2019-01-15T10:02:42.695Z,2.87
2019-01-15T10:05:11.212Z,2.40
2019-01-15T10:07:39.700Z,2.77
2019-01-15T10:10:14.276Z,2.53
2019-01-15T10:12:42.751Z,2.60
2019-01-15T10:15:19.964Z,2.60
2019-01-15T10:17:48.451Z,2.77
2019-01-15T10:20:18.644Z,2.80
2019-01-15T10:22:48.057Z,3.20
2019-01-15T10:25:18.393Z,2.03
2019-01-15T10:27:48.233Z,3.27
2019-01-15T10:30:27.772Z,2.70
2019-01-15T10:33:05.271Z,2.13
2019-01-15T10:35:52.051Z,3.00
2019-01-15T10:38:21.340Z,2.83
2019-01-15T10:40:50.413Z,2.57
2019-01-15T10:43:18.857Z,2.87
2019-01-15T10:45:47.321Z,2.80
2019-01-15T10:48:15.795Z,2.43
2019-01-15T10:50:44.264Z,2.67
2019-01-15T10:53:12.725Z,3.47
2019-01-15T10:55:41.234Z,2.90
2019-01-15T10:58:09.848Z,3.17
2019-01-15T11:00:38.303Z,2.87
2019-01-15T11:03:06.845Z,3.53
2019-01-15T11:05:35.303Z,3.50
2019-01-15T11:08:04.155Z,3.27
2019-01-15T11:10:32.595Z,2.60
2019-01-15T11:13:01.091Z,4.07
2019-01-15T11:15:29.535Z,2.97
2019-01-15T11:17:58.012Z,2.67
2019-01-15T11:20:26.468Z,3.37
2019-01-15T11:22:54.943Z,2.80
2019-01-15T11:25:23.392Z,3.23
2019-01-15T11:27:51.866Z,3.07
2019-01-15T11:30:20.820Z,3.30
2019-01-15T11:32:49.306Z,2.80
2019-01-15T11:35:17.793Z,3.87
2019-01-15T11:37:46.267Z,3.60
2019-01-15T11:40:16.961Z,3.10
2019-01-15T11:42:45.610Z,3.60
2019-01-15T11:45:16.805Z,3.40
2019-01-15T11:47:45.726Z,3.93
2019-01-15T11:50:17.253Z,3.60
2019-01-15T11:52:45.734Z,3.67
2019-01-15T11:55:14.521Z,4.00
2019-01-15T11:57:42.992Z,4.00
2019-01-15T12:00:19.095Z,4.50
2019-01-15T12:02:49.386Z,4.00
2019-01-15T12:05:31.750Z,3.53
2019-01-15T12:08:10.631Z,4.13
2019-01-15T12:10:58.833Z,3.90
2019-01-15T12:13:45.353Z,3.77
2019-01-15T12:16:21.673Z,4.37
2019-01-15T12:19:10.342Z,3.97
2019-01-15T12:21:49.392Z,4.17
2019-01-15T12:24:19.525Z,4.33
2019-01-15T12:27:05.839Z,4.67
2019-01-15T12:29:38.416Z,4.57
2019-01-15T12:32:14.442Z,4.53
2019-01-15T12:35:00.625Z,5.20
2019-01-15T12:37:39.650Z,4.13
2019-01-15T12:40:14.196Z,4.60
2019-01-15T12:42:49.985Z,4.53
2019-01-15T12:45:23.433Z,4.10
2019-01-15T12:48:09.458Z,4.60
2019-01-15T12:50:54.499Z,4.87
2019-01-15T12:53:33.327Z,4.70
2019-01-15T12:56:19.426Z,4.67
2019-01-15T12:58:55.526Z,5.17
2019-01-15T13:01:42.095Z,5.03
2019-01-15T13:04:21.153Z,5.23
2019-01-15T13:06:56.734Z,5.20
2019-01-15T13:09:29.534Z,7.17
2019-01-15T13:11:59.629Z,7.10
2019-01-15T13:14:29.756Z,6.70
2019-01-15T13:17:05.576Z,6.70
2019-01-15T13:19:35.697Z,5.83
2019-01-15T13:22:09.082Z,5.90
2019-01-15T13:24:47.852Z,6.93
2019-01-15T13:27:23.701Z,6.47
2019-01-15T13:30:08.801Z,6.67
2019-01-15T13:32:54.978Z,7.53
2019-01-15T13:35:25.107Z,6.37
2019-01-15T13:37:55.208Z,7.43
2019-01-15T13:40:25.348Z,7.20
2019-01-15T13:43:11.623Z,7.40
2019-01-15T13:45:42.127Z,7.83
2019-01-15T13:48:30.626Z,7.70
2019-01-15T13:51:03.411Z,8.20
2019-01-15T13:53:42.454Z,7.87
2019-01-15T13:56:28.720Z,7.63
2019-01-15T13:58:58.882Z,8.53
2019-01-15T14:01:29.006Z,7.60
2019-01-15T14:04:10.833Z,8.40
2019-01-15T14:06:46.963Z,7.90
2019-01-15T14:09:19.909Z,9.83
2019-01-15T14:11:56.227Z,7.87
2019-01-15T14:14:26.321Z,8.27
2019-01-15T14:17:01.904Z,8.23
2019-01-15T14:19:31.992Z,8.27
2019-01-15T14:22:18.737Z,7.67
2019-01-15T14:24:48.828Z,7.63
2019-01-15T14:27:24.708Z,8.40
2019-01-15T14:30:09.557Z,8.53
2019-01-15T14:32:57.745Z,7.97
2019-01-15T14:35:30.294Z,8.47
2019-01-15T14:38:15.546Z,7.83
2019-01-15T14:40:54.625Z,7.73
2019-01-15T14:43:24.727Z,8.17
2019-01-15T14:46:00.364Z,8.18
2019-01-15T14:48:35.085Z,7.73
2019-01-15T14:51:05.216Z,7.57
2019-01-15T14:53:51.579Z,7.13
2019-01-15T14:56:30.853Z,7.27
2019-01-15T14:59:07.183Z,7.10
2019-01-15T15:01:37.293Z,7.00
2019-01-15T15:04:12.953Z,7.23
2019-01-15T15:06:49.084Z,6.67
2019-01-15T15:09:21.663Z,7.57
2019-01-15T15:12:06.557Z,7.70
2019-01-15T15:14:36.665Z,7.90
2019-01-15T15:17:06.861Z,8.20
2019-01-15T15:19:52.065Z,8.87
2019-01-15T15:22:24.645Z,8.80
2019-01-15T15:24:54.744Z,8.37
2019-01-15T15:27:43.154Z,8.80
2019-01-15T15:30:32.659Z,9.10
2019-01-15T15:33:05.680Z,8.77
2019-01-15T15:35:41.485Z,9.23
2019-01-15T15:38:14.286Z,10.27
2019-01-15T15:40:44.407Z,9.40
2019-01-15T15:43:20.340Z,9.40
2019-01-15T15:45:56.425Z,12.60
2019-01-15T15:48:42.795Z,11.53
2019-01-15T15:51:15.761Z,10.50
2019-01-15T15:54:02.236Z,11.57
2019-01-15T15:56:41.419Z,10.33
2019-01-15T15:59:27.979Z,11.73
2019-01-15T16:02:00.547Z,11.13
2019-01-15T16:04:33.124Z,11.17
2019-01-15T16:07:06.193Z,11.40
2019-01-15T16:09:52.563Z,11.90
2019-01-15T16:12:31.618Z,11.03
2019-01-15T16:15:04.846Z,11.17
2019-01-15T16:17:34.955Z,11.87
2019-01-15T16:20:06.156Z,11.43
2019-01-15T16:22:42.517Z,11.93
2019-01-15T16:25:16.184Z,11.83
2019-01-15T16:27:49.242Z,11.33
2019-01-15T16:30:36.645Z,11.00
2019-01-15T16:33:22.902Z,10.37
2019-01-15T16:35:58.890Z,11.73
2019-01-15T16:38:38.057Z,12.30
2019-01-15T16:41:19.975Z,10.13
2019-01-15T16:43:50.103Z,11.27
2019-01-15T16:46:26.229Z,9.87
2019-01-15T16:49:08.535Z,10.37
2019-01-15T16:51:38.652Z,10.40
2019-01-15T16:54:08.781Z,9.33
2019-01-15T16:56:45.012Z,9.47
2019-01-15T16:59:21.275Z,9.33
2019-01-15T17:01:54.406Z,10.10
2019-01-15T17:04:40.715Z,9.67
2019-01-15T17:07:13.456Z,8.50
2019-01-15T17:09:46.488Z,8.93
2019-01-15T17:12:19.251Z,9.73
2019-01-15T17:14:49.373Z,8.20
2019-01-15T17:17:22.256Z,10.27
2019-01-15T17:19:52.372Z,7.87
2019-01-15T17:22:34.751Z,8.17
2019-01-15T17:25:11.046Z,7.73
2019-01-15T17:27:41.139Z,8.43
2019-01-15T17:30:26.533Z,8.17
2019-01-15T17:32:59.634Z,7.53
2019-01-15T17:35:29.757Z,8.67
2019-01-15T17:38:05.319Z,7.73
2019-01-15T17:40:40.889Z,7.70
2019-01-15T17:43:10.989Z,6.60
2019-01-15T17:45:41.111Z,7.73
2019-01-15T17:48:13.635Z,7.47
2019-01-15T17:53:27.596Z,7.20
2019-01-15T17:56:00.446Z,7.50
2019-01-15T17:58:45.795Z,7.70
2019-01-15T18:01:15.926Z,7.57
2019-01-15T18:03:55.159Z,7.73
2019-01-15T18:06:41.641Z,6.97
2019-01-15T18:09:11.740Z,6.90
2019-01-15T18:11:58.202Z,7.50
2019-01-15T18:14:40.312Z,6.90
2019-01-15T18:17:22.877Z,6.43
2019-01-15T18:19:55.479Z,6.53
2019-01-15T18:22:25.878Z,6.83
2019-01-15T18:24:55.977Z,6.20
2019-01-15T18:27:26.119Z,6.77
2019-01-15T18:30:02.185Z,7.30
2019-01-15T18:32:44.377Z,7.00
2019-01-15T18:35:32.254Z,6.67
2019-01-15T18:38:04.906Z,6.53
2019-01-15T18:40:44.043Z,6.37
2019-01-15T18:43:14.155Z,6.60
2019-01-15T18:46:00.692Z,6.87
2019-01-15T18:48:39.771Z,6.00
2019-01-15T18:51:12.609Z,9.75
2019-01-15T18:53:57.679Z,6.53
2019-01-15T18:56:27.873Z,6.27
2019-01-15T18:59:10.217Z,6.40
2019-01-15T19:01:49.512Z,6.90
2019-01-15T19:04:22.444Z,6.17
2019-01-15T19:07:01.862Z,5.93
2019-01-15T19:09:50.185Z,5.30
2019-01-15T19:12:32.180Z,6.27
2019-01-15T19:15:18.294Z,6.83
2019-01-15T19:20:29.498Z,6.23
2019-01-15T19:22:59.627Z,6.73
2019-01-15T19:25:41.432Z,6.10
2019-01-15T19:28:17.553Z,5.97
2019-01-15T19:30:47.661Z,6.00
2019-01-15T19:33:17.794Z,6.57
2019-01-15T19:36:04.093Z,6.03
2019-01-15T19:38:50.272Z,6.03
2019-01-15T19:41:38.699Z,5.97
2019-01-15T19:44:08.809Z,6.70
2019-01-15T19:46:44.493Z,6.30
2019-01-15T19:49:17.060Z,7.37
2019-01-15T19:51:47.154Z,6.73
2019-01-15T19:54:30.974Z,6.60
2019-01-15T19:57:01.093Z,6.97
2019-01-15T19:59:31.218Z,7.67
2019-01-15T20:02:01.334Z,7.27
2019-01-15T20:04:31.452Z,6.67
2019-01-15T20:07:10.653Z,7.03
2019-01-15T20:09:40.776Z,7.00
2019-01-15T20:12:27.196Z,6.57
2019-01-15T20:15:03.135Z,6.33
2019-01-15T20:17:33.309Z,7.00
2019-01-15T20:20:06.477Z,6.07
2019-01-15T20:22:48.885Z,6.80
2019-01-15T20:25:35.306Z,6.43
2019-01-15T20:28:23.397Z,6.47
2019-01-15T20:31:02.662Z,6.20
2019-01-15T20:33:32.801Z,7.97
2019-01-15T20:36:15.026Z,5.53
2019-01-15T20:38:45.195Z,6.57
2019-01-15T20:41:17.758Z,5.77
2019-01-15T20:43:47.885Z,5.87
2019-01-15T20:46:34.176Z,6.30
2019-01-15T20:49:10.344Z,6.40
2019-01-15T20:51:46.523Z,6.10
2019-01-15T20:54:22.663Z,5.67
2019-01-15T20:57:09.095Z,6.23
2019-01-15T20:59:39.216Z,6.27
2019-01-15T21:02:18.458Z,5.87
2019-01-15T21:05:00.283Z,6.27
2019-01-15T21:07:42.537Z,5.57
2019-01-15T21:10:22.130Z,6.00
2019-01-15T21:12:52.233Z,5.07
2019-01-15T21:15:24.821Z,5.60
2019-01-15T21:18:10.168Z,5.10
2019-01-15T21:20:56.536Z,4.43
2019-01-15T21:23:42.872Z,4.90
2019-01-15T21:26:15.858Z,4.87
2019-01-15T21:28:45.961Z,4.83
2019-01-15T21:31:21.856Z,4.90
2019-01-15T21:34:06.948Z,4.40
2019-01-15T21:36:37.066Z,4.27
2019-01-15T21:39:20.439Z,4.00
2019-01-15T21:41:50.572Z,4.43
2019-01-15T21:44:26.124Z,4.17
2019-01-15T21:47:11.257Z,4.37
2019-01-15T21:49:44.144Z,4.17
2019-01-15T21:52:32.251Z,4.17
2019-01-15T21:55:09.859Z,4.43
2019-01-15T21:57:49.105Z,4.00
2019-01-15T22:00:25.177Z,4.37
2019-01-15T22:03:10.015Z,4.37
2019-01-15T22:05:40.135Z,4.10
2019-01-15T22:08:26.838Z,4.67
2019-01-15T22:10:56.977Z,4.77
2019-01-15T22:13:42.091Z,4.63
2019-01-15T22:16:12.282Z,4.93
2019-01-15T22:18:42.397Z,5.60
2019-01-15T22:21:18.323Z,6.27
2019-01-15T22:24:04.597Z,5.47
2019-01-15T22:26:43.716Z,5.70
2019-01-15T22:29:13.826Z,5.83
2019-01-15T22:31:43.946Z,5.97
2019-01-15T22:34:14.047Z,6.23
2019-01-15T22:37:00.605Z,6.23
2019-01-15T22:39:30.712Z,6.93
2019-01-15T22:42:15.839Z,6.13
2019-01-15T22:44:55.212Z,7.80
2019-01-15T22:47:28.103Z,6.67
2019-01-15T22:50:03.661Z,7.27
2019-01-15T22:52:36.303Z,6.67
2019-01-15T22:55:23.147Z,6.77
2019-01-15T22:57:59.458Z,7.23
2019-01-15T23:00:50.550Z,7.07
2019-01-15T23:03:29.784Z,7.20
2019-01-15T23:05:59.906Z,7.07
2019-01-15T23:08:35.901Z,6.60
2019-01-15T23:11:08.936Z,7.17
2019-01-15T23:13:39.071Z,7.33
2019-01-15T23:16:12.161Z,6.43
2019-01-15T23:18:47.946Z,6.33
2019-01-15T23:21:18.055Z,6.93
2019-01-15T23:23:48.216Z,6.60
2019-01-15T23:26:18.324Z,6.50
2019-01-15T23:28:54.262Z,7.50
2019-01-15T23:31:26.816Z,6.17
2019-01-15T23:34:12.412Z,7.10
2019-01-15T23:36:42.523Z,7.00
2019-01-15T23:39:18.577Z,7.10
2019-01-15T23:41:54.594Z,6.13
2019-01-15T23:44:30.690Z,6.23
2019-01-15T23:47:09.949Z,6.47
2019-01-15T23:49:56.565Z,5.93
2019-01-15T23:52:35.199Z,5.70
2019-01-15T23:55:18.452Z,5.10
2019-01-15T23:57:48.564Z,6.07
